sensor_id;sensor_type;location;lat;lon;timestamp;P1;durP1;ratioP1;P2;durP2;ratioP2
71395;SDS011;59888;55.814;37.132;2023-05-07T00:00:42;7.00;;;4.07;;
71395;SDS011;59888;55.814;37.132;2023-05-07T00:03:08;7.97;;;4.05;;
71395;SDS011;59888;55.814;37.132;2023-05-07T00:05:34;7.78;;;3.97;;
71395;SDS011;59888;55.814;37.132;2023-05-07T00:08:00;7.97;;;4.18;;
71395;SDS011;59888;55.814;37.132;2023-05-07T00:10:26;9.23;;;4.45;;
71395;SDS011;59888;55.814;37.132;2023-05-07T00:12:52;7.30;;;4.03;;
71395;SDS011;59888;55.814;37.132;2023-05-07T00:15:18;9.70;;;4.25;;
71395;SDS011;59888;55.814;37.132;2023-05-07T00:17:44;10.23;;;4.43;;
71395;SDS011;59888;55.814;37.132;2023-05-07T00:20:10;9.38;;;4.32;;
71395;SDS011;59888;55.814;37.132;2023-05-07T00:22:37;8.48;;;4.07;;
71395;SDS011;59888;55.814;37.132;2023-05-07T00:25:03;10.52;;;4.63;;
71395;SDS011;59888;55.814;37.132;2023-05-07T00:27:32;8.52;;;4.70;;
71395;SDS011;59888;55.814;37.132;2023-05-07T00:29:58;9.32;;;4.63;;
71395;SDS011;59888;55.814;37.132;2023-05-07T00:32:24;10.30;;;4.65;;
71395;SDS011;59888;55.814;37.132;2023-05-07T00:34:50;9.52;;;4.38;;
71395;SDS011;59888;55.814;37.132;2023-05-07T00:37:16;7.72;;;4.30;;
71395;SDS011;59888;55.814;37.132;2023-05-07T00:39:42;10.00;;;4.80;;
71395;SDS011;59888;55.814;37.132;2023-05-07T00:42:08;8.95;;;4.47;;
71395;SDS011;59888;55.814;37.132;2023-05-07T00:44:34;7.65;;;3.78;;
71395;SDS011;59888;55.814;37.132;2023-05-07T00:47:01;10.82;;;4.03;;
71395;SDS011;59888;55.814;37.132;2023-05-07T00:49:38;7.88;;;3.90;;
71395;SDS011;59888;55.814;37.132;2023-05-07T00:52:06;6.28;;;3.38;;
71395;SDS011;59888;55.814;37.132;2023-05-07T00:54:34;7.85;;;3.95;;
71395;SDS011;59888;55.814;37.132;2023-05-07T00:57:02;9.15;;;4.47;;
71395;SDS011;59888;55.814;37.132;2023-05-07T00:59:29;8.63;;;3.83;;
71395;SDS011;59888;55.814;37.132;2023-05-07T01:01:57;10.63;;;4.53;;
71395;SDS011;59888;55.814;37.132;2023-05-07T01:04:23;10.65;;;3.85;;
71395;SDS011;59888;55.814;37.132;2023-05-07T01:06:49;8.10;;;4.63;;
71395;SDS011;59888;55.814;37.132;2023-05-07T01:09:15;7.15;;;4.45;;
71395;SDS011;59888;55.814;37.132;2023-05-07T01:11:42;6.75;;;3.70;;
71395;SDS011;59888;55.814;37.132;2023-05-07T01:14:08;9.05;;;3.97;;
71395;SDS011;59888;55.814;37.132;2023-05-07T01:16:36;8.63;;;4.28;;
71395;SDS011;59888;55.814;37.132;2023-05-07T01:19:02;7.40;;;3.33;;
71395;SDS011;59888;55.814;37.132;2023-05-07T01:21:29;8.27;;;4.13;;
71395;SDS011;59888;55.814;37.132;2023-05-07T01:24:02;6.50;;;3.70;;
71395;SDS011;59888;55.814;37.132;2023-05-07T01:26:30;6.90;;;3.58;;
71395;SDS011;59888;55.814;37.132;2023-05-07T01:28:56;8.68;;;4.30;;
71395;SDS011;59888;55.814;37.132;2023-05-07T01:31:23;8.02;;;3.75;;
71395;SDS011;59888;55.814;37.132;2023-05-07T01:33:50;7.47;;;4.00;;
71395;SDS011;59888;55.814;37.132;2023-05-07T01:36:18;10.65;;;3.70;;
71395;SDS011;59888;55.814;37.132;2023-05-07T01:38:51;8.02;;;3.88;;
71395;SDS011;59888;55.814;37.132;2023-05-07T01:41:18;7.90;;;3.70;;
71395;SDS011;59888;55.814;37.132;2023-05-07T01:43:45;9.50;;;3.67;;
71395;SDS011;59888;55.814;37.132;2023-05-07T01:46:12;10.13;;;4.20;;
71395;SDS011;59888;55.814;37.132;2023-05-07T01:48:39;9.32;;;3.75;;
71395;SDS011;59888;55.814;37.132;2023-05-07T01:51:06;7.28;;;4.05;;
71395;SDS011;59888;55.814;37.132;2023-05-07T01:53:37;6.85;;;3.88;;
71395;SDS011;59888;55.814;37.132;2023-05-07T01:56:06;6.22;;;3.28;;
71395;SDS011;59888;55.814;37.132;2023-05-07T01:58:35;8.27;;;3.53;;
71395;SDS011;59888;55.814;37.132;2023-05-07T02:01:01;8.75;;;3.58;;
71395;SDS011;59888;55.814;37.132;2023-05-07T02:03:27;8.50;;;3.83;;
71395;SDS011;59888;55.814;37.132;2023-05-07T02:06:02;9.77;;;3.97;;
71395;SDS011;59888;55.814;37.132;2023-05-07T02:08:34;8.20;;;3.53;;
71395;SDS011;59888;55.814;37.132;2023-05-07T02:11:00;8.70;;;3.83;;
71395;SDS011;59888;55.814;37.132;2023-05-07T02:13:29;7.35;;;3.53;;
71395;SDS011;59888;55.814;37.132;2023-05-07T02:15:57;9.18;;;3.83;;
71395;SDS011;59888;55.814;37.132;2023-05-07T02:18:24;10.95;;;3.60;;
71395;SDS011;59888;55.814;37.132;2023-05-07T02:20:51;8.60;;;3.17;;
71395;SDS011;59888;55.814;37.132;2023-05-07T02:23:17;7.15;;;3.90;;
71395;SDS011;59888;55.814;37.132;2023-05-07T02:25:43;6.25;;;3.58;;
71395;SDS011;59888;55.814;37.132;2023-05-07T02:28:09;6.00;;;3.47;;
71395;SDS011;59888;55.814;37.132;2023-05-07T02:30:44;11.75;;;3.60;;
71395;SDS011;59888;55.814;37.132;2023-05-07T02:33:10;12.45;;;3.60;;
71395;SDS011;59888;55.814;37.132;2023-05-07T02:35:39;11.93;;;3.65;;
71395;SDS011;59888;55.814;37.132;2023-05-07T02:38:06;7.93;;;3.60;;
71395;SDS011;59888;55.814;37.132;2023-05-07T02:40:33;8.80;;;3.63;;
71395;SDS011;59888;55.814;37.132;2023-05-07T02:42:59;8.38;;;3.72;;
71395;SDS011;59888;55.814;37.132;2023-05-07T02:45:25;9.40;;;3.70;;
71395;SDS011;59888;55.814;37.132;2023-05-07T02:47:53;7.22;;;3.85;;
71395;SDS011;59888;55.814;37.132;2023-05-07T02:50:20;8.77;;;3.47;;
71395;SDS011;59888;55.814;37.132;2023-05-07T02:52:46;6.95;;;3.28;;
71395;SDS011;59888;55.814;37.132;2023-05-07T02:55:13;5.85;;;3.40;;
71395;SDS011;59888;55.814;37.132;2023-05-07T02:57:39;9.15;;;3.80;;
71395;SDS011;59888;55.814;37.132;2023-05-07T03:00:14;6.20;;;3.30;;
71395;SDS011;59888;55.814;37.132;2023-05-07T03:02:53;8.05;;;3.50;;
71395;SDS011;59888;55.814;37.132;2023-05-07T03:05:20;6.60;;;3.22;;
71395;SDS011;59888;55.814;37.132;2023-05-07T03:07:46;6.55;;;3.65;;
71395;SDS011;59888;55.814;37.132;2023-05-07T03:10:14;7.03;;;3.63;;
71395;SDS011;59888;55.814;37.132;2023-05-07T03:12:40;7.25;;;3.65;;
71395;SDS011;59888;55.814;37.132;2023-05-07T03:15:08;8.18;;;3.53;;
71395;SDS011;59888;55.814;37.132;2023-05-07T03:17:34;6.30;;;3.70;;
71395;SDS011;59888;55.814;37.132;2023-05-07T03:20:00;8.93;;;3.45;;
71395;SDS011;59888;55.814;37.132;2023-05-07T03:22:27;5.82;;;3.38;;
71395;SDS011;59888;55.814;37.132;2023-05-07T03:24:53;6.95;;;3.70;;
71395;SDS011;59888;55.814;37.132;2023-05-07T03:27:19;7.32;;;3.40;;
71395;SDS011;59888;55.814;37.132;2023-05-07T03:29:45;4.95;;;2.90;;
71395;SDS011;59888;55.814;37.132;2023-05-07T03:32:11;7.07;;;3.05;;
71395;SDS011;59888;55.814;37.132;2023-05-07T03:34:37;5.43;;;3.08;;
71395;SDS011;59888;55.814;37.132;2023-05-07T03:37:03;4.60;;;2.63;;
71395;SDS011;59888;55.814;37.132;2023-05-07T03:39:29;4.40;;;2.33;;
71395;SDS011;59888;55.814;37.132;2023-05-07T03:41:56;5.53;;;3.20;;
71395;SDS011;59888;55.814;37.132;2023-05-07T03:44:22;6.28;;;2.70;;
71395;SDS011;59888;55.814;37.132;2023-05-07T03:46:50;6.13;;;3.00;;
71395;SDS011;59888;55.814;37.132;2023-05-07T03:49:16;5.38;;;2.55;;
71395;SDS011;59888;55.814;37.132;2023-05-07T03:51:42;8.20;;;2.70;;
71395;SDS011;59888;55.814;37.132;2023-05-07T03:54:08;4.63;;;2.97;;
71395;SDS011;59888;55.814;37.132;2023-05-07T03:56:36;4.70;;;2.80;;
71395;SDS011;59888;55.814;37.132;2023-05-07T03:59:02;6.47;;;2.88;;
71395;SDS011;59888;55.814;37.132;2023-05-07T04:01:28;5.47;;;2.60;;
71395;SDS011;59888;55.814;37.132;2023-05-07T04:03:55;4.38;;;2.63;;
71395;SDS011;59888;55.814;37.132;2023-05-07T04:06:21;5.82;;;2.80;;
71395;SDS011;59888;55.814;37.132;2023-05-07T04:08:48;4.55;;;2.60;;
71395;SDS011;59888;55.814;37.132;2023-05-07T04:11:15;4.35;;;2.42;;
71395;SDS011;59888;55.814;37.132;2023-05-07T04:13:41;3.80;;;2.30;;
71395;SDS011;59888;55.814;37.132;2023-05-07T04:16:08;4.57;;;2.47;;
71395;SDS011;59888;55.814;37.132;2023-05-07T04:18:36;4.57;;;2.05;;
71395;SDS011;59888;55.814;37.132;2023-05-07T04:21:03;4.85;;;2.47;;
71395;SDS011;59888;55.814;37.132;2023-05-07T04:23:29;4.55;;;2.10;;
71395;SDS011;59888;55.814;37.132;2023-05-07T04:26:02;3.95;;;2.00;;
71395;SDS011;59888;55.814;37.132;2023-05-07T04:28:34;4.25;;;1.83;;
71395;SDS011;59888;55.814;37.132;2023-05-07T04:31:01;3.60;;;2.00;;
71395;SDS011;59888;55.814;37.132;2023-05-07T04:33:31;3.28;;;1.48;;
71395;SDS011;59888;55.814;37.132;2023-05-07T04:36:00;3.67;;;1.52;;
71395;SDS011;59888;55.814;37.132;2023-05-07T04:38:29;4.43;;;1.80;;
71395;SDS011;59888;55.814;37.132;2023-05-07T04:41:04;2.65;;;1.50;;
71395;SDS011;59888;55.814;37.132;2023-05-07T04:43:33;3.85;;;1.80;;
71395;SDS011;59888;55.814;37.132;2023-05-07T04:45:59;2.22;;;1.50;;
71395;SDS011;59888;55.814;37.132;2023-05-07T04:48:26;3.50;;;1.65;;
71395;SDS011;59888;55.814;37.132;2023-05-07T04:50:53;3.38;;;1.80;;
71395;SDS011;59888;55.814;37.132;2023-05-07T04:53:20;3.70;;;1.60;;
71395;SDS011;59888;55.814;37.132;2023-05-07T04:55:48;2.97;;;1.50;;
71395;SDS011;59888;55.814;37.132;2023-05-07T04:58:16;3.22;;;1.60;;
71395;SDS011;59888;55.814;37.132;2023-05-07T05:00:44;2.90;;;1.50;;
71395;SDS011;59888;55.814;37.132;2023-05-07T05:03:10;5.45;;;2.78;;
71395;SDS011;59888;55.814;37.132;2023-05-07T05:05:38;2.90;;;1.70;;
71395;SDS011;59888;55.814;37.132;2023-05-07T05:08:04;2.58;;;1.40;;
71395;SDS011;59888;55.814;37.132;2023-05-07T05:10:31;3.22;;;1.52;;
71395;SDS011;59888;55.814;37.132;2023-05-07T05:12:57;1.70;;;1.20;;
71395;SDS011;59888;55.814;37.132;2023-05-07T05:15:23;3.40;;;1.27;;
71395;SDS011;59888;55.814;37.132;2023-05-07T05:17:50;2.72;;;1.40;;
71395;SDS011;59888;55.814;37.132;2023-05-07T05:20:17;4.03;;;1.30;;
71395;SDS011;59888;55.814;37.132;2023-05-07T05:22:43;2.28;;;1.42;;
71395;SDS011;59888;55.814;37.132;2023-05-07T05:25:11;1.70;;;1.00;;
71395;SDS011;59888;55.814;37.132;2023-05-07T05:27:37;3.28;;;1.70;;
71395;SDS011;59888;55.814;37.132;2023-05-07T05:30:04;3.47;;;1.30;;
71395;SDS011;59888;55.814;37.132;2023-05-07T05:32:32;1.95;;;1.20;;
71395;SDS011;59888;55.814;37.132;2023-05-07T05:34:59;2.50;;;1.30;;
71395;SDS011;59888;55.814;37.132;2023-05-07T05:37:25;2.53;;;1.25;;
71395;SDS011;59888;55.814;37.132;2023-05-07T05:39:52;2.83;;;1.20;;
71395;SDS011;59888;55.814;37.132;2023-05-07T05:42:21;2.33;;;1.40;;
71395;SDS011;59888;55.814;37.132;2023-05-07T05:44:47;2.75;;;1.20;;
71395;SDS011;59888;55.814;37.132;2023-05-07T05:47:13;2.65;;;1.20;;
71395;SDS011;59888;55.814;37.132;2023-05-07T05:49:39;2.60;;;1.35;;
71395;SDS011;59888;55.814;37.132;2023-05-07T05:52:07;3.20;;;1.35;;
71395;SDS011;59888;55.814;37.132;2023-05-07T05:54:33;1.67;;;1.17;;
71395;SDS011;59888;55.814;37.132;2023-05-07T05:56:58;2.13;;;1.10;;
71395;SDS011;59888;55.814;37.132;2023-05-07T05:59:24;3.40;;;1.48;;
71395;SDS011;59888;55.814;37.132;2023-05-07T06:01:52;3.20;;;1.20;;
71395;SDS011;59888;55.814;37.132;2023-05-07T06:04:18;2.10;;;1.00;;
71395;SDS011;59888;55.814;37.132;2023-05-07T06:06:44;2.03;;;1.10;;
71395;SDS011;59888;55.814;37.132;2023-05-07T06:09:11;2.00;;;1.15;;
71395;SDS011;59888;55.814;37.132;2023-05-07T06:11:41;3.50;;;1.13;;
71395;SDS011;59888;55.814;37.132;2023-05-07T06:14:07;2.53;;;1.40;;
71395;SDS011;59888;55.814;37.132;2023-05-07T06:16:33;2.85;;;1.33;;
71395;SDS011;59888;55.814;37.132;2023-05-07T06:19:00;1.88;;;1.10;;
71395;SDS011;59888;55.814;37.132;2023-05-07T06:21:26;3.17;;;1.17;;
71395;SDS011;59888;55.814;37.132;2023-05-07T06:23:51;2.05;;;1.02;;
71395;SDS011;59888;55.814;37.132;2023-05-07T06:26:18;2.15;;;1.20;;
71395;SDS011;59888;55.814;37.132;2023-05-07T06:28:46;3.97;;;1.20;;
71395;SDS011;59888;55.814;37.132;2023-05-07T06:31:18;2.90;;;1.20;;
71395;SDS011;59888;55.814;37.132;2023-05-07T06:33:59;2.30;;;1.42;;
71395;SDS011;59888;55.814;37.132;2023-05-07T06:36:34;1.92;;;1.10;;
71395;SDS011;59888;55.814;37.132;2023-05-07T06:39:08;2.13;;;1.00;;
71395;SDS011;59888;55.814;37.132;2023-05-07T06:41:35;2.15;;;1.35;;
71395;SDS011;59888;55.814;37.132;2023-05-07T06:44:06;3.58;;;1.50;;
71395;SDS011;59888;55.814;37.132;2023-05-07T06:46:45;2.22;;;1.17;;
71395;SDS011;59888;55.814;37.132;2023-05-07T06:49:12;2.20;;;1.10;;
71395;SDS011;59888;55.814;37.132;2023-05-07T06:51:38;1.90;;;1.20;;
71395;SDS011;59888;55.814;37.132;2023-05-07T06:54:05;4.57;;;1.20;;
71395;SDS011;59888;55.814;37.132;2023-05-07T06:56:33;2.47;;;1.70;;
71395;SDS011;59888;55.814;37.132;2023-05-07T06:59:03;1.85;;;1.10;;
71395;SDS011;59888;55.814;37.132;2023-05-07T07:01:34;2.67;;;1.23;;
71395;SDS011;59888;55.814;37.132;2023-05-07T07:04:01;2.88;;;1.23;;
71395;SDS011;59888;55.814;37.132;2023-05-07T07:06:28;1.73;;;1.10;;
71395;SDS011;59888;55.814;37.132;2023-05-07T07:08:57;1.83;;;1.08;;
71395;SDS011;59888;55.814;37.132;2023-05-07T07:11:24;1.52;;;0.82;;
71395;SDS011;59888;55.814;37.132;2023-05-07T07:13:50;1.88;;;1.10;;
71395;SDS011;59888;55.814;37.132;2023-05-07T07:16:16;2.30;;;0.90;;
71395;SDS011;59888;55.814;37.132;2023-05-07T07:18:45;1.90;;;1.00;;
71395;SDS011;59888;55.814;37.132;2023-05-07T07:21:11;1.73;;;1.15;;
71395;SDS011;59888;55.814;37.132;2023-05-07T07:23:38;1.88;;;1.05;;
71395;SDS011;59888;55.814;37.132;2023-05-07T07:26:04;3.30;;;1.20;;
71395;SDS011;59888;55.814;37.132;2023-05-07T07:28:31;2.50;;;1.00;;
71395;SDS011;59888;55.814;37.132;2023-05-07T07:30:57;3.78;;;1.20;;
71395;SDS011;59888;55.814;37.132;2023-05-07T07:33:24;2.10;;;1.20;;
71395;SDS011;59888;55.814;37.132;2023-05-07T07:35:50;2.10;;;1.05;;
71395;SDS011;59888;55.814;37.132;2023-05-07T07:38:15;2.92;;;1.13;;
71395;SDS011;59888;55.814;37.132;2023-05-07T07:40:42;1.58;;;0.93;;
71395;SDS011;59888;55.814;37.132;2023-05-07T07:43:10;2.95;;;1.05;;
71395;SDS011;59888;55.814;37.132;2023-05-07T07:45:36;1.45;;;0.93;;
71395;SDS011;59888;55.814;37.132;2023-05-07T07:48:02;4.70;;;1.85;;
71395;SDS011;59888;55.814;37.132;2023-05-07T07:50:33;2.00;;;1.13;;
71395;SDS011;59888;55.814;37.132;2023-05-07T07:52:59;3.25;;;1.13;;
71395;SDS011;59888;55.814;37.132;2023-05-07T07:55:26;1.98;;;1.02;;
71395;SDS011;59888;55.814;37.132;2023-05-07T07:57:53;2.75;;;1.00;;
71395;SDS011;59888;55.814;37.132;2023-05-07T08:00:21;1.88;;;0.93;;
71395;SDS011;59888;55.814;37.132;2023-05-07T08:02:51;3.22;;;1.50;;
71395;SDS011;59888;55.814;37.132;2023-05-07T08:05:23;3.35;;;1.40;;
71395;SDS011;59888;55.814;37.132;2023-05-07T08:07:51;2.50;;;1.35;;
71395;SDS011;59888;55.814;37.132;2023-05-07T08:10:20;3.17;;;1.80;;
71395;SDS011;59888;55.814;37.132;2023-05-07T08:12:49;3.20;;;1.10;;
71395;SDS011;59888;55.814;37.132;2023-05-07T08:15:16;2.88;;;1.20;;
71395;SDS011;59888;55.814;37.132;2023-05-07T08:17:43;1.75;;;1.00;;
71395;SDS011;59888;55.814;37.132;2023-05-07T08:20:09;2.70;;;1.15;;
71395;SDS011;59888;55.814;37.132;2023-05-07T08:22:36;1.83;;;0.95;;
71395;SDS011;59888;55.814;37.132;2023-05-07T08:25:02;1.63;;;1.00;;
71395;SDS011;59888;55.814;37.132;2023-05-07T08:27:30;1.73;;;1.10;;
71395;SDS011;59888;55.814;37.132;2023-05-07T08:29:56;1.63;;;0.90;;
71395;SDS011;59888;55.814;37.132;2023-05-07T08:32:22;2.42;;;1.10;;
71395;SDS011;59888;55.814;37.132;2023-05-07T08:34:48;3.92;;;1.10;;
71395;SDS011;59888;55.814;37.132;2023-05-07T08:37:14;2.50;;;1.17;;
71395;SDS011;59888;55.814;37.132;2023-05-07T08:39:40;1.85;;;1.02;;
71395;SDS011;59888;55.814;37.132;2023-05-07T08:42:12;2.60;;;1.20;;
71395;SDS011;59888;55.814;37.132;2023-05-07T08:44:41;1.30;;;0.85;;
71395;SDS011;59888;55.814;37.132;2023-05-07T08:47:15;2.10;;;0.95;;
71395;SDS011;59888;55.814;37.132;2023-05-07T08:49:42;1.95;;;0.90;;
71395;SDS011;59888;55.814;37.132;2023-05-07T08:52:09;1.30;;;0.90;;
71395;SDS011;59888;55.814;37.132;2023-05-07T08:54:37;1.75;;;1.10;;
71395;SDS011;59888;55.814;37.132;2023-05-07T08:57:05;3.47;;;1.10;;
71395;SDS011;59888;55.814;37.132;2023-05-07T08:59:32;2.03;;;1.10;;
71395;SDS011;59888;55.814;37.132;2023-05-07T09:01:59;1.92;;;0.98;;
71395;SDS011;59888;55.814;37.132;2023-05-07T09:04:25;2.00;;;0.98;;
71395;SDS011;59888;55.814;37.132;2023-05-07T09:06:51;1.40;;;0.90;;
71395;SDS011;59888;55.814;37.132;2023-05-07T09:09:21;3.63;;;1.10;;
71395;SDS011;59888;55.814;37.132;2023-05-07T09:11:55;5.22;;;0.85;;
71395;SDS011;59888;55.814;37.132;2023-05-07T09:14:24;2.33;;;1.10;;
71395;SDS011;59888;55.814;37.132;2023-05-07T09:16:53;2.10;;;1.00;;
71395;SDS011;59888;55.814;37.132;2023-05-07T09:19:23;2.67;;;1.10;;
71395;SDS011;59888;55.814;37.132;2023-05-07T09:21:57;4.18;;;1.08;;
71395;SDS011;59888;55.814;37.132;2023-05-07T09:24:30;2.60;;;1.05;;
71395;SDS011;59888;55.814;37.132;2023-05-07T09:27:01;2.20;;;1.00;;
71395;SDS011;59888;55.814;37.132;2023-05-07T09:29:29;2.22;;;0.95;;
71395;SDS011;59888;55.814;37.132;2023-05-07T09:32:03;3.53;;;0.98;;
71395;SDS011;59888;55.814;37.132;2023-05-07T09:34:32;2.05;;;1.05;;
71395;SDS011;59888;55.814;37.132;2023-05-07T09:37:01;2.00;;;0.90;;
71395;SDS011;59888;55.814;37.132;2023-05-07T09:39:41;2.35;;;1.23;;
71395;SDS011;59888;55.814;37.132;2023-05-07T09:42:14;2.55;;;1.20;;
71395;SDS011;59888;55.814;37.132;2023-05-07T09:44:44;1.85;;;1.00;;
71395;SDS011;59888;55.814;37.132;2023-05-07T09:47:17;1.75;;;0.98;;
71395;SDS011;59888;55.814;37.132;2023-05-07T09:49:49;4.40;;;1.02;;
71395;SDS011;59888;55.814;37.132;2023-05-07T09:52:20;2.17;;;0.93;;
71395;SDS011;59888;55.814;37.132;2023-05-07T09:54:50;4.03;;;1.67;;
71395;SDS011;59888;55.814;37.132;2023-05-07T09:57:21;6.70;;;2.00;;
71395;SDS011;59888;55.814;37.132;2023-05-07T09:59:54;3.25;;;1.25;;
71395;SDS011;59888;55.814;37.132;2023-05-07T10:02:25;4.25;;;2.33;;
71395;SDS011;59888;55.814;37.132;2023-05-07T10:04:55;2.85;;;1.27;;
71395;SDS011;59888;55.814;37.132;2023-05-07T10:09:59;2.10;;;1.23;;
71395;SDS011;59888;55.814;37.132;2023-05-07T10:12:31;3.13;;;1.20;;
71395;SDS011;59888;55.814;37.132;2023-05-07T10:15:11;4.40;;;1.40;;
71395;SDS011;59888;55.814;37.132;2023-05-07T10:17:40;3.85;;;1.30;;
71395;SDS011;59888;55.814;37.132;2023-05-07T10:20:08;3.10;;;1.05;;
71395;SDS011;59888;55.814;37.132;2023-05-07T10:22:44;1.88;;;1.02;;
71395;SDS011;59888;55.814;37.132;2023-05-07T10:25:23;2.72;;;1.30;;
71395;SDS011;59888;55.814;37.132;2023-05-07T10:27:54;2.45;;;1.00;;
71395;SDS011;59888;55.814;37.132;2023-05-07T10:30:33;1.70;;;0.85;;
71395;SDS011;59888;55.814;37.132;2023-05-07T10:33:23;4.18;;;1.30;;
71395;SDS011;59888;55.814;37.132;2023-05-07T10:35:55;2.30;;;0.95;;
71395;SDS011;59888;55.814;37.132;2023-05-07T10:38:25;3.15;;;1.02;;
71395;SDS011;59888;55.814;37.132;2023-05-07T10:40:53;1.75;;;0.98;;
71395;SDS011;59888;55.814;37.132;2023-05-07T10:43:20;1.77;;;0.93;;
71395;SDS011;59888;55.814;37.132;2023-05-07T10:51:36;2.25;;;1.00;;
71395;SDS011;59888;55.814;37.132;2023-05-07T10:56:42;4.15;;;1.10;;
71395;SDS011;59888;55.814;37.132;2023-05-07T11:01:54;1.55;;;0.88;;
71395;SDS011;59888;55.814;37.132;2023-05-07T11:11:10;2.03;;;0.90;;
71395;SDS011;59888;55.814;37.132;2023-05-07T11:13:42;1.67;;;1.00;;
71395;SDS011;59888;55.814;37.132;2023-05-07T11:16:22;3.13;;;1.00;;
71395;SDS011;59888;55.814;37.132;2023-05-07T11:18:56;1.42;;;0.90;;
71395;SDS011;59888;55.814;37.132;2023-05-07T11:21:38;1.90;;;1.20;;
71395;SDS011;59888;55.814;37.132;2023-05-07T11:24:21;2.25;;;1.08;;
71395;SDS011;59888;55.814;37.132;2023-05-07T11:26:52;2.25;;;1.08;;
71395;SDS011;59888;55.814;37.132;2023-05-07T11:29:21;2.65;;;1.30;;
71395;SDS011;59888;55.814;37.132;2023-05-07T11:31:53;2.53;;;1.30;;
71395;SDS011;59888;55.814;37.132;2023-05-07T11:34:23;4.22;;;1.73;;
71395;SDS011;59888;55.814;37.132;2023-05-07T11:36:52;2.35;;;1.30;;
71395;SDS011;59888;55.814;37.132;2023-05-07T11:39:24;1.73;;;1.10;;
71395;SDS011;59888;55.814;37.132;2023-05-07T11:41:55;3.00;;;1.70;;
71395;SDS011;59888;55.814;37.132;2023-05-07T11:44:21;3.40;;;1.40;;
71395;SDS011;59888;55.814;37.132;2023-05-07T11:46:47;2.33;;;1.00;;
71395;SDS011;59888;55.814;37.132;2023-05-07T11:49:14;1.70;;;0.90;;
71395;SDS011;59888;55.814;37.132;2023-05-07T11:51:40;1.85;;;1.20;;
71395;SDS011;59888;55.814;37.132;2023-05-07T11:54:08;1.92;;;0.80;;
71395;SDS011;59888;55.814;37.132;2023-05-07T11:56:36;2.53;;;1.02;;
71395;SDS011;59888;55.814;37.132;2023-05-07T11:59:02;3.03;;;1.20;;
71395;SDS011;59888;55.814;37.132;2023-05-07T12:01:28;1.92;;;1.10;;
71395;SDS011;59888;55.814;37.132;2023-05-07T12:03:54;1.88;;;0.98;;
71395;SDS011;59888;55.814;37.132;2023-05-07T12:06:20;2.90;;;1.00;;
71395;SDS011;59888;55.814;37.132;2023-05-07T12:08:46;1.85;;;1.10;;
71395;SDS011;59888;55.814;37.132;2023-05-07T12:11:14;3.10;;;1.80;;
71395;SDS011;59888;55.814;37.132;2023-05-07T12:13:42;3.22;;;1.30;;
71395;SDS011;59888;55.814;37.132;2023-05-07T12:16:09;3.72;;;1.10;;
71395;SDS011;59888;55.814;37.132;2023-05-07T12:18:36;2.15;;;1.05;;
71395;SDS011;59888;55.814;37.132;2023-05-07T12:21:03;2.58;;;1.17;;
71395;SDS011;59888;55.814;37.132;2023-05-07T12:23:30;1.60;;;1.00;;
71395;SDS011;59888;55.814;37.132;2023-05-07T12:25:56;1.27;;;0.90;;
71395;SDS011;59888;55.814;37.132;2023-05-07T12:28:22;2.28;;;1.10;;
71395;SDS011;59888;55.814;37.132;2023-05-07T12:30:49;2.25;;;0.90;;
71395;SDS011;59888;55.814;37.132;2023-05-07T12:33:17;2.47;;;1.00;;
71395;SDS011;59888;55.814;37.132;2023-05-07T12:35:47;2.13;;;1.00;;
71395;SDS011;59888;55.814;37.132;2023-05-07T12:38:14;3.65;;;1.15;;
71395;SDS011;59888;55.814;37.132;2023-05-07T12:40:42;2.30;;;0.90;;
71395;SDS011;59888;55.814;37.132;2023-05-07T12:43:27;1.83;;;1.00;;
71395;SDS011;59888;55.814;37.132;2023-05-07T12:45:54;2.60;;;1.20;;
71395;SDS011;59888;55.814;37.132;2023-05-07T12:48:21;1.50;;;0.90;;
71395;SDS011;59888;55.814;37.132;2023-05-07T12:50:51;2.28;;;0.90;;
71395;SDS011;59888;55.814;37.132;2023-05-07T12:53:21;1.90;;;1.10;;
71395;SDS011;59888;55.814;37.132;2023-05-07T12:55:51;4.45;;;1.60;;
71395;SDS011;59888;55.814;37.132;2023-05-07T12:58:24;2.22;;;0.95;;
71395;SDS011;59888;55.814;37.132;2023-05-07T13:00:55;5.03;;;1.10;;
71395;SDS011;59888;55.814;37.132;2023-05-07T13:03:30;2.25;;;1.02;;
71395;SDS011;59888;55.814;37.132;2023-05-07T13:05:59;1.70;;;1.02;;
71395;SDS011;59888;55.814;37.132;2023-05-07T13:08:33;1.98;;;1.20;;
71395;SDS011;59888;55.814;37.132;2023-05-07T13:11:02;1.67;;;1.00;;
71395;SDS011;59888;55.814;37.132;2023-05-07T13:13:33;1.95;;;1.00;;
71395;SDS011;59888;55.814;37.132;2023-05-07T13:16:00;1.33;;;0.82;;
71395;SDS011;59888;55.814;37.132;2023-05-07T13:18:29;1.45;;;0.88;;
71395;SDS011;59888;55.814;37.132;2023-05-07T13:20:56;1.83;;;1.10;;
71395;SDS011;59888;55.814;37.132;2023-05-07T13:23:22;1.60;;;0.90;;
71395;SDS011;59888;55.814;37.132;2023-05-07T13:25:48;2.15;;;1.20;;
71395;SDS011;59888;55.814;37.132;2023-05-07T13:28:16;1.67;;;1.10;;
71395;SDS011;59888;55.814;37.132;2023-05-07T13:30:42;3.92;;;1.52;;
71395;SDS011;59888;55.814;37.132;2023-05-07T13:33:08;4.03;;;1.90;;
71395;SDS011;59888;55.814;37.132;2023-05-07T13:35:34;3.40;;;1.42;;
71395;SDS011;59888;55.814;37.132;2023-05-07T13:38:00;4.20;;;1.30;;
71395;SDS011;59888;55.814;37.132;2023-05-07T13:40:26;1.73;;;1.10;;
71395;SDS011;59888;55.814;37.132;2023-05-07T13:42:53;5.22;;;1.77;;
71395;SDS011;59888;55.814;37.132;2023-05-07T13:45:19;2.58;;;1.45;;
71395;SDS011;59888;55.814;37.132;2023-05-07T13:47:46;2.78;;;1.38;;
71395;SDS011;59888;55.814;37.132;2023-05-07T13:50:12;2.17;;;0.90;;
71395;SDS011;59888;55.814;37.132;2023-05-07T13:52:43;1.70;;;1.00;;
71395;SDS011;59888;55.814;37.132;2023-05-07T13:55:19;2.00;;;1.05;;
71395;SDS011;59888;55.814;37.132;2023-05-07T13:57:46;2.33;;;1.00;;
71395;SDS011;59888;55.814;37.132;2023-05-07T14:00:13;1.40;;;0.90;;
71395;SDS011;59888;55.814;37.132;2023-05-07T14:02:41;3.58;;;1.08;;
71395;SDS011;59888;55.814;37.132;2023-05-07T14:05:07;1.35;;;0.88;;
71395;SDS011;59888;55.814;37.132;2023-05-07T14:07:34;1.50;;;0.90;;
71395;SDS011;59888;55.814;37.132;2023-05-07T14:10:01;2.58;;;1.15;;
71395;SDS011;59888;55.814;37.132;2023-05-07T14:12:31;2.88;;;1.10;;
71395;SDS011;59888;55.814;37.132;2023-05-07T14:14:58;2.20;;;1.20;;
71395;SDS011;59888;55.814;37.132;2023-05-07T14:17:25;4.82;;;1.10;;
71395;SDS011;59888;55.814;37.132;2023-05-07T14:19:53;2.33;;;1.17;;
71395;SDS011;59888;55.814;37.132;2023-05-07T14:22:22;3.72;;;1.05;;
71395;SDS011;59888;55.814;37.132;2023-05-07T14:24:49;3.47;;;1.02;;
71395;SDS011;59888;55.814;37.132;2023-05-07T14:27:15;3.67;;;1.08;;
71395;SDS011;59888;55.814;37.132;2023-05-07T14:29:41;1.83;;;1.08;;
71395;SDS011;59888;55.814;37.132;2023-05-07T14:32:08;2.65;;;1.50;;
71395;SDS011;59888;55.814;37.132;2023-05-07T14:34:34;3.17;;;1.23;;
71395;SDS011;59888;55.814;37.132;2023-05-07T14:37:00;2.38;;;1.00;;
71395;SDS011;59888;55.814;37.132;2023-05-07T14:39:27;2.72;;;1.10;;
71395;SDS011;59888;55.814;37.132;2023-05-07T14:41:53;2.55;;;1.10;;
71395;SDS011;59888;55.814;37.132;2023-05-07T14:44:21;3.28;;;1.80;;
71395;SDS011;59888;55.814;37.132;2023-05-07T14:46:47;2.10;;;1.17;;
71395;SDS011;59888;55.814;37.132;2023-05-07T14:49:14;2.25;;;1.42;;
71395;SDS011;59888;55.814;37.132;2023-05-07T14:51:46;2.70;;;1.30;;
71395;SDS011;59888;55.814;37.132;2023-05-07T14:54:13;1.90;;;1.27;;
71395;SDS011;59888;55.814;37.132;2023-05-07T14:56:39;3.92;;;1.77;;
71395;SDS011;59888;55.814;37.132;2023-05-07T14:59:06;5.30;;;2.50;;